createdAt,value
2023-02-08T00:02:20.872Z,29.83
2023-02-08T00:04:49.176Z,31.07
2023-02-08T00:07:16.964Z,32.07
2023-02-08T00:09:44.606Z,33.07
2023-02-08T00:12:12.258Z,31.77
2023-02-08T00:14:41.450Z,31.87
2023-02-08T00:17:09.246Z,33.27
2023-02-08T00:19:36.934Z,32.37
2023-02-08T00:22:04.646Z,31.57
2023-02-08T00:24:32.367Z,31.17
2023-02-08T00:27:00.035Z,31.37
2023-02-08T00:29:27.755Z,29.77
2023-02-08T00:31:56.824Z,29.67
2023-02-08T00:34:24.511Z,30.90
2023-02-08T00:36:52.898Z,31.43
2023-02-08T00:39:21.133Z,30.13
2023-02-08T00:41:48.804Z,31.90
2023-02-08T00:44:16.481Z,30.13
2023-02-08T00:46:45.781Z,29.60
2023-02-08T00:49:14.760Z,29.97
2023-02-08T00:51:42.382Z,30.70
2023-02-08T00:54:14.687Z,30.87
2023-02-08T00:56:42.470Z,30.60
2023-02-08T00:59:10.216Z,28.10
2023-02-08T01:01:38.723Z,29.07
2023-02-08T01:04:06.583Z,30.07
2023-02-08T01:06:35.621Z,29.30
2023-02-08T01:09:03.335Z,30.40
2023-02-08T01:11:31.022Z,31.50
2023-02-08T01:14:00.030Z,29.77
2023-02-08T01:16:29.703Z,30.27
2023-02-08T01:18:59.300Z,29.90
2023-02-08T01:21:28.559Z,32.23
2023-02-08T01:23:58.119Z,29.57
2023-02-08T01:26:26.792Z,31.43
2023-02-08T01:28:55.433Z,31.63
2023-02-08T01:31:25.797Z,29.57
2023-02-08T01:33:53.518Z,30.30
2023-02-08T01:36:21.162Z,29.80
2023-02-08T01:38:48.976Z,29.47
2023-02-08T01:41:21.358Z,28.57
2023-02-08T01:44:07.721Z,30.77
2023-02-08T01:46:36.708Z,28.40
2023-02-08T01:49:07.702Z,29.23
2023-02-08T01:51:39.382Z,27.90
2023-02-08T01:54:08.856Z,29.87
2023-02-08T01:56:41.091Z,27.77
2023-02-08T01:59:11.972Z,29.10
2023-02-08T02:01:40.118Z,27.90
2023-02-08T02:04:08.412Z,28.70
2023-02-08T02:06:38.889Z,29.73
2023-02-08T02:09:13.322Z,29.17
2023-02-08T02:11:42.754Z,28.80
2023-02-08T02:14:10.927Z,29.00
2023-02-08T02:16:39.348Z,28.07
2023-02-08T02:19:12.191Z,26.93
2023-02-08T02:21:58.974Z,28.73
2023-02-08T02:25:06.388Z,28.03
2023-02-08T02:28:01.074Z,26.70
2023-02-08T02:31:01.822Z,27.77
2023-02-08T02:33:37.140Z,29.70
2023-02-08T02:36:10.384Z,30.07
2023-02-08T02:38:45.385Z,28.97
2023-02-08T02:41:39.858Z,29.43
2023-02-08T02:44:12.720Z,28.40
2023-02-08T02:46:43.279Z,28.50
2023-02-08T02:49:18.525Z,27.57
2023-02-08T02:51:49.474Z,28.20
2023-02-08T02:54:20.766Z,28.80
2023-02-08T02:56:50.914Z,29.17
2023-02-08T02:59:19.686Z,28.17
2023-02-08T03:01:47.826Z,28.27
2023-02-08T03:04:18.603Z,27.13
2023-02-08T03:07:00.516Z,28.10
2023-02-08T03:09:48.591Z,27.17
2023-02-08T03:12:28.191Z,28.07
2023-02-08T03:14:59.673Z,25.83
2023-02-08T03:17:45.101Z,26.70
2023-02-08T03:20:17.632Z,27.70
2023-02-08T03:22:52.696Z,26.40
2023-02-08T03:25:23.807Z,27.10
2023-02-08T03:27:58.478Z,25.77
2023-02-08T03:30:29.626Z,27.07
2023-02-08T03:33:01.472Z,26.53
2023-02-08T03:35:32.869Z,26.37
2023-02-08T03:38:03.054Z,26.20
2023-02-08T03:40:35.137Z,26.20
2023-02-08T03:43:09.079Z,26.97
2023-02-08T03:45:40.789Z,27.17
2023-02-08T03:48:10.541Z,26.10
2023-02-08T03:50:41.463Z,27.10
2023-02-08T03:53:10.190Z,25.90
2023-02-08T03:55:38.751Z,26.50
2023-02-08T03:58:12.706Z,25.70
2023-02-08T04:00:42.822Z,25.17
2023-02-08T04:03:15.711Z,25.60
2023-02-08T04:05:45.476Z,25.77
2023-02-08T04:08:13.378Z,26.10
2023-02-08T04:10:41.484Z,27.03
2023-02-08T04:13:09.375Z,25.50
2023-02-08T04:15:37.137Z,25.73
2023-02-08T04:18:05.332Z,25.90
2023-02-08T04:20:33.353Z,26.63
2023-02-08T04:23:02.392Z,25.47
2023-02-08T04:25:30.074Z,26.10
2023-02-08T04:27:58.266Z,25.93
2023-02-08T04:30:26.339Z,25.90
2023-02-08T04:32:54.372Z,26.60
2023-02-08T04:35:22.025Z,25.57
2023-02-08T04:37:49.705Z,25.77
2023-02-08T04:40:19.023Z,26.07
2023-02-08T04:42:46.704Z,26.70
2023-02-08T04:45:14.366Z,25.93
2023-02-08T04:47:42.402Z,26.23
2023-02-08T04:50:10.433Z,26.27
2023-02-08T04:52:38.085Z,26.87
2023-02-08T04:55:06.427Z,27.23
2023-02-08T04:57:35.814Z,26.50
2023-02-08T05:00:03.600Z,27.30
2023-02-08T05:02:31.282Z,25.67
2023-02-08T05:04:58.947Z,27.10
2023-02-08T05:07:26.629Z,26.80
2023-02-08T05:09:54.641Z,28.33
2023-02-08T05:12:22.728Z,26.53
2023-02-08T05:14:51.719Z,26.50
2023-02-08T05:17:19.418Z,25.87
2023-02-08T05:19:47.077Z,25.30
2023-02-08T05:22:15.324Z,29.38
2023-02-08T05:24:43.101Z,26.13
2023-02-08T05:27:10.907Z,27.53
2023-02-08T05:29:38.666Z,26.40
2023-02-08T05:32:08.086Z,27.57
2023-02-08T05:34:35.912Z,26.30
2023-02-08T05:37:03.586Z,25.97
2023-02-08T05:39:31.290Z,27.53
2023-02-08T05:41:59.316Z,27.30
2023-02-08T05:44:27.012Z,27.90
2023-02-08T05:46:54.746Z,27.77
2023-02-08T05:49:23.864Z,27.70
2023-02-08T05:51:51.645Z,29.33
2023-02-08T05:54:19.440Z,30.20
2023-02-08T05:56:47.565Z,29.47
2023-02-08T05:59:15.257Z,28.40
2023-02-08T06:01:42.985Z,28.97
2023-02-08T06:04:10.862Z,28.20
2023-02-08T06:06:40.072Z,28.77
2023-02-08T06:09:07.793Z,29.23
2023-02-08T06:11:36.101Z,29.50
2023-02-08T06:14:03.984Z,30.53
2023-02-08T06:16:31.968Z,29.70
2023-02-08T06:18:59.742Z,30.27
2023-02-08T06:21:28.174Z,29.77
2023-02-08T06:23:57.473Z,30.13
2023-02-08T06:26:25.214Z,31.33
2023-02-08T06:28:52.981Z,29.83
2023-02-08T06:31:21.175Z,31.37
2023-02-08T06:33:49.347Z,29.87
2023-02-08T06:36:17.077Z,31.13
2023-02-08T06:38:44.878Z,30.87
2023-02-08T06:41:13.987Z,31.93
2023-02-08T06:43:41.630Z,31.63
2023-02-08T06:46:09.507Z,31.57
2023-02-08T06:48:37.585Z,30.77
2023-02-08T06:51:05.698Z,31.00
2023-02-08T06:53:33.412Z,29.73
2023-02-08T06:56:01.186Z,30.73
2023-02-08T06:58:30.211Z,31.93
2023-02-08T07:00:58.379Z,32.43
2023-02-08T07:03:26.070Z,31.50
2023-02-08T07:06:04.512Z,32.17
2023-02-08T07:08:34.600Z,30.37
2023-02-08T07:11:07.861Z,31.97
2023-02-08T07:13:37.132Z,32.57
2023-02-08T07:16:05.477Z,32.07
2023-02-08T07:18:33.595Z,32.37
2023-02-08T07:21:01.674Z,32.20
2023-02-08T07:23:29.517Z,31.13
2023-02-08T07:25:58.584Z,31.07
2023-02-08T07:28:26.415Z,31.97
2023-02-08T07:30:55.765Z,32.23
2023-02-08T07:33:25.034Z,30.70
2023-02-08T07:35:53.063Z,31.43
2023-02-08T07:38:21.059Z,31.53
2023-02-08T07:40:49.144Z,31.93
2023-02-08T07:43:16.995Z,32.93
2023-02-08T07:45:55.956Z,31.63
2023-02-08T07:48:23.789Z,31.57
2023-02-08T07:50:51.890Z,30.27
2023-02-08T07:53:20.189Z,31.97
2023-02-08T07:55:47.878Z,30.83
2023-02-08T07:58:16.068Z,30.60
2023-02-08T08:00:43.788Z,32.43
2023-02-08T08:03:13.586Z,32.20
2023-02-08T08:05:41.745Z,30.93
2023-02-08T08:08:09.638Z,29.53
2023-02-08T08:10:38.209Z,31.10
2023-02-08T08:13:06.730Z,30.30
2023-02-08T08:15:34.532Z,29.47
2023-02-08T08:18:02.250Z,28.43
2023-02-08T08:20:31.321Z,30.10
2023-02-08T08:22:59.076Z,28.83
2023-02-08T08:25:28.071Z,30.37
2023-02-08T08:27:56.834Z,29.73
2023-02-08T08:30:24.721Z,29.93
2023-02-08T08:32:52.613Z,28.03
2023-02-08T08:35:21.026Z,30.10
2023-02-08T08:37:50.176Z,29.47
2023-02-08T08:40:18.052Z,31.17
2023-02-08T08:42:45.719Z,29.90
2023-02-08T08:45:13.427Z,29.57
2023-02-08T08:47:41.171Z,28.30
2023-02-08T08:50:09.595Z,28.93
2023-02-08T08:52:37.643Z,28.93
2023-02-08T08:55:07.465Z,29.20
2023-02-08T08:57:35.370Z,28.67
2023-02-08T09:00:03.693Z,27.40
2023-02-08T09:02:31.832Z,28.77
2023-02-08T09:05:00.329Z,28.23
2023-02-08T09:07:28.034Z,27.17
2023-02-08T09:09:55.681Z,28.50
2023-02-08T09:12:24.753Z,25.07
2023-02-08T09:14:52.388Z,26.60
2023-02-08T09:17:20.217Z,26.67
2023-02-08T09:19:48.206Z,26.10
2023-02-08T09:22:15.921Z,25.57
2023-02-08T09:24:43.647Z,26.23
2023-02-08T09:27:11.680Z,24.63
2023-02-08T09:29:40.731Z,24.43
2023-02-08T09:32:10.191Z,24.93
2023-02-08T09:34:38.480Z,23.83
2023-02-08T09:37:07.167Z,22.97
2023-02-08T09:39:35.959Z,23.43
2023-02-08T09:42:26.538Z,23.20
2023-02-08T09:45:06.174Z,22.70
2023-02-08T09:47:36.221Z,21.97
2023-02-08T09:50:06.652Z,22.60
2023-02-08T09:52:37.825Z,23.23
2023-02-08T09:55:17.496Z,22.10
2023-02-08T09:57:46.241Z,20.33
2023-02-08T10:00:18.001Z,19.80
2023-02-08T10:02:46.036Z,19.23
2023-02-08T10:05:16.370Z,18.70
2023-02-08T10:07:44.327Z,19.50
2023-02-08T10:10:15.708Z,19.38
2023-02-08T10:12:48.856Z,18.85
2023-02-08T10:15:26.852Z,19.20
2023-02-08T10:18:18.482Z,19.08
2023-02-08T10:20:53.797Z,17.67
2023-02-08T10:23:32.600Z,18.77
2023-02-08T10:26:08.686Z,18.65
2023-02-08T10:28:50.803Z,17.38
2023-02-08T10:31:30.128Z,17.38
2023-02-08T10:34:02.411Z,16.30
2023-02-08T10:36:33.217Z,18.15
2023-02-08T10:39:02.476Z,16.88
2023-02-08T10:41:33.760Z,16.02
2023-02-08T10:44:06.506Z,17.55
2023-02-08T10:46:41.345Z,16.60
2023-02-08T10:49:13.478Z,16.15
2023-02-08T10:51:41.263Z,15.10
2023-02-08T10:54:11.523Z,15.40
2023-02-08T10:56:47.505Z,14.88
2023-02-08T10:59:19.873Z,14.52
2023-02-08T11:01:49.837Z,14.85
2023-02-08T11:04:18.581Z,14.50
2023-02-08T11:06:49.111Z,14.48
2023-02-08T11:09:22.758Z,14.35
2023-02-08T11:11:52.523Z,13.88
2023-02-08T11:14:21.569Z,12.75
2023-02-08T11:16:54.872Z,12.10
2023-02-08T11:19:29.010Z,12.98
2023-02-08T11:21:57.109Z,12.13
2023-02-08T11:24:29.154Z,13.30
2023-02-08T11:26:57.553Z,13.10
2023-02-08T11:29:26.715Z,12.70
2023-02-08T11:32:01.227Z,13.77
2023-02-08T11:34:30.637Z,12.90
2023-02-08T11:36:59.216Z,12.52
2023-02-08T11:39:29.229Z,12.18
2023-02-08T11:41:59.659Z,12.60
2023-02-08T11:44:29.625Z,12.23
2023-02-08T11:47:00.975Z,11.57
2023-02-08T11:49:33.362Z,11.27
2023-02-08T11:52:01.086Z,11.02
2023-02-08T11:54:41.245Z,11.25
2023-02-08T11:57:14.776Z,11.68
2023-02-08T11:59:43.215Z,11.07
2023-02-08T12:02:37.294Z,10.90
2023-02-08T12:05:06.172Z,10.90
2023-02-08T12:07:42.207Z,11.73
2023-02-08T12:10:27.764Z,10.68
2023-02-08T12:13:25.268Z,10.07
2023-02-08T12:16:00.564Z,10.70
2023-02-08T12:18:40.085Z,10.68
2023-02-08T12:21:13.009Z,11.30
2023-02-08T12:23:48.741Z,10.85
2023-02-08T12:26:24.566Z,10.55
2023-02-08T12:29:03.026Z,11.32
2023-02-08T12:31:40.303Z,10.98
2023-02-08T12:34:16.355Z,11.07
2023-02-08T12:37:16.021Z,11.18
2023-02-08T12:40:05.651Z,10.40
2023-02-08T12:42:41.255Z,10.45
2023-02-08T12:45:29.947Z,11.77
2023-02-08T12:48:05.266Z,10.80
2023-02-08T12:50:41.811Z,11.27
2023-02-08T12:53:17.054Z,10.80
2023-02-08T12:55:46.148Z,10.40
2023-02-08T12:58:29.216Z,12.15
2023-02-08T13:00:58.913Z,11.77
2023-02-08T13:03:36.007Z,11.50
2023-02-08T13:06:08.294Z,10.73
2023-02-08T13:08:40.953Z,11.02
2023-02-08T13:11:19.740Z,11.02
2023-02-08T13:13:54.562Z,10.90
2023-02-08T13:16:25.223Z,11.20
2023-02-08T13:18:55.418Z,11.20
2023-02-08T13:21:26.700Z,10.50
2023-02-08T13:23:54.575Z,11.00
2023-02-08T13:26:26.254Z,10.18
2023-02-08T13:28:55.343Z,10.80
2023-02-08T13:31:25.404Z,10.27
2023-02-08T13:34:01.644Z,10.00
2023-02-08T13:36:33.277Z,10.05
2023-02-08T13:39:02.908Z,10.30
2023-02-08T13:41:31.450Z,9.68
2023-02-08T13:44:01.644Z,9.88
2023-02-08T13:46:30.476Z,10.35
2023-02-08T13:49:00.355Z,9.50
2023-02-08T13:52:03.271Z,10.13
2023-02-08T13:54:31.099Z,9.63
2023-02-08T13:56:59.215Z,10.32
2023-02-08T13:59:36.295Z,10.57
2023-02-08T14:02:28.581Z,9.95
2023-02-08T14:05:15.444Z,10.60
2023-02-08T14:07:45.887Z,10.70
2023-02-08T14:10:23.758Z,10.82
2023-02-08T14:12:57.526Z,10.65
2023-02-08T14:15:34.363Z,11.00
2023-02-08T14:18:02.620Z,9.40
2023-02-08T14:20:33.929Z,9.70
2023-02-08T14:23:04.780Z,8.55
2023-02-08T14:25:42.115Z,8.45
2023-02-08T14:28:24.793Z,9.75
2023-02-08T14:30:54.187Z,9.65
2023-02-08T14:33:24.220Z,10.25
2023-02-08T14:35:53.984Z,10.57
2023-02-08T14:38:51.618Z,10.60
2023-02-08T14:41:44.865Z,10.35
2023-02-08T14:44:55.156Z,9.65
2023-02-08T14:48:03.096Z,8.88
2023-02-08T14:50:43.050Z,9.70
2023-02-08T14:53:21.306Z,9.20
2023-02-08T14:55:53.743Z,9.57
2023-02-08T14:58:28.009Z,9.07
2023-02-08T15:01:01.418Z,9.50
2023-02-08T15:03:31.954Z,9.40
2023-02-08T15:06:09.309Z,8.35
2023-02-08T15:08:37.004Z,8.75
2023-02-08T15:11:06.072Z,9.45
2023-02-08T15:13:33.721Z,8.60
2023-02-08T15:16:01.552Z,9.00
2023-02-08T15:18:31.476Z,8.55
2023-02-08T15:21:05.059Z,8.48
2023-02-08T15:23:33.676Z,8.48
2023-02-08T15:26:03.001Z,8.38
2023-02-08T15:28:35.195Z,9.77
2023-02-08T15:31:05.108Z,9.02
2023-02-08T15:33:34.303Z,8.80
2023-02-08T15:36:05.923Z,9.32
2023-02-08T15:38:37.124Z,8.77
2023-02-08T15:41:07.343Z,9.00
2023-02-08T15:43:37.599Z,9.65
2023-02-08T15:46:07.193Z,9.18
2023-02-08T15:48:43.720Z,8.88
2023-02-08T15:51:14.330Z,9.25
2023-02-08T15:53:44.142Z,9.88
2023-02-08T15:56:26.878Z,9.90
2023-02-08T15:59:04.640Z,9.45
2023-02-08T16:01:32.962Z,11.88
2023-02-08T16:04:01.856Z,10.10
2023-02-08T16:06:31.907Z,10.52
2023-02-08T16:09:01.839Z,10.98
2023-02-08T16:11:31.629Z,11.20
2023-02-08T16:14:01.306Z,11.82
2023-02-08T16:16:40.107Z,10.90
2023-02-08T16:19:20.981Z,9.43
2023-02-08T16:21:48.609Z,11.07
2023-02-08T16:24:23.145Z,11.07
2023-02-08T16:26:58.755Z,10.93
2023-02-08T16:29:28.899Z,12.00
2023-02-08T16:32:13.483Z,10.88
2023-02-08T16:34:41.701Z,12.10
2023-02-08T16:37:22.268Z,11.80
2023-02-08T16:39:54.552Z,12.17
2023-02-08T16:42:35.688Z,13.18
2023-02-08T16:45:18.290Z,13.82
2023-02-08T16:47:50.679Z,13.20
2023-02-08T16:50:20.587Z,14.38
2023-02-08T16:52:51.065Z,13.00
2023-02-08T16:55:22.327Z,13.17
2023-02-08T16:57:54.448Z,13.80
2023-02-08T17:00:25.397Z,14.70
2023-02-08T17:02:55.153Z,12.88
2023-02-08T17:05:24.875Z,14.57
2023-02-08T17:07:52.740Z,14.53
2023-02-08T17:10:28.634Z,14.55
2023-02-08T17:13:09.919Z,13.07
2023-02-08T17:15:45.593Z,12.93
2023-02-08T17:18:15.290Z,14.43
2023-02-08T17:20:43.566Z,13.40
2023-02-08T17:23:11.861Z,12.50
2023-02-08T17:25:39.881Z,14.77
2023-02-08T17:28:09.683Z,13.10
2023-02-08T17:30:39.821Z,13.18
2023-02-08T17:33:08.136Z,13.70
2023-02-08T17:35:38.237Z,17.67
2023-02-08T17:38:06.604Z,14.20
2023-02-08T17:40:37.163Z,12.80
2023-02-08T17:43:06.267Z,13.30
2023-02-08T17:45:38.255Z,13.10
2023-02-08T17:48:06.543Z,13.90
2023-02-08T17:50:34.389Z,12.60
2023-02-08T17:53:04.393Z,12.83
2023-02-08T17:55:32.567Z,12.73
2023-02-08T17:58:00.663Z,12.63
2023-02-08T18:00:28.300Z,13.63
2023-02-08T18:02:57.329Z,13.70
2023-02-08T18:05:27.996Z,13.40
2023-02-08T18:07:57.329Z,13.30
2023-02-08T18:10:28.133Z,13.37
2023-02-08T18:12:56.026Z,13.73
2023-02-08T18:15:24.129Z,13.03
2023-02-08T18:17:51.885Z,13.27
2023-02-08T18:20:19.832Z,13.03
2023-02-08T18:22:47.498Z,17.83
2023-02-08T18:25:15.932Z,16.73
2023-02-08T18:27:45.005Z,16.17
2023-02-08T18:30:13.573Z,16.10
2023-02-08T18:32:41.348Z,15.47
2023-02-08T18:35:09.522Z,16.23
2023-02-08T18:37:37.813Z,16.73
2023-02-08T18:40:06.165Z,16.27
2023-02-08T18:42:36.033Z,17.23
2023-02-08T18:45:06.136Z,17.70
2023-02-08T18:47:35.670Z,17.60
2023-02-08T18:50:03.466Z,17.83
2023-02-08T18:52:31.695Z,17.37
2023-02-08T18:54:59.698Z,18.00
2023-02-08T18:57:27.447Z,18.57
2023-02-08T18:59:55.834Z,19.07
2023-02-08T19:02:26.214Z,19.50
2023-02-08T19:04:54.022Z,17.70
2023-02-08T19:07:21.850Z,19.20
2023-02-08T19:09:49.596Z,19.40
2023-02-08T19:12:19.057Z,19.70
2023-02-08T19:14:50.563Z,19.47
2023-02-08T19:17:18.440Z,20.80
2023-02-08T19:19:47.703Z,20.60
2023-02-08T19:22:15.485Z,21.47
2023-02-08T19:24:43.963Z,21.33
2023-02-08T19:27:11.648Z,19.30
2023-02-08T19:29:39.404Z,20.73
2023-02-08T19:32:08.151Z,25.00
2023-02-08T19:34:36.119Z,19.73
2023-02-08T19:37:05.356Z,20.73
2023-02-08T19:39:33.093Z,20.73
2023-02-08T19:42:00.755Z,21.00
2023-02-08T19:44:30.585Z,21.80
2023-02-08T19:46:58.380Z,20.30
2023-02-08T19:49:28.175Z,20.50
2023-02-08T19:51:56.601Z,20.67
2023-02-08T19:54:25.833Z,20.37
2023-02-08T19:56:54.583Z,21.63
2023-02-08T19:59:24.413Z,21.80
2023-02-08T20:01:52.286Z,21.93
2023-02-08T20:04:20.475Z,21.53
2023-02-08T20:06:51.559Z,20.57
2023-02-08T20:09:19.214Z,21.30
2023-02-08T20:11:56.866Z,21.40
2023-02-08T20:14:25.283Z,20.27
2023-02-08T20:16:53.322Z,20.93
2023-02-08T20:19:21.168Z,21.50
2023-02-08T20:21:48.810Z,21.80
2023-02-08T20:24:16.786Z,21.50
2023-02-08T20:26:46.399Z,25.80
2023-02-08T20:29:15.911Z,24.10
2023-02-08T20:31:46.541Z,22.97
2023-02-08T20:34:15.309Z,21.50
2023-02-08T20:36:49.665Z,22.70
2023-02-08T20:39:22.504Z,22.53
2023-02-08T20:41:50.692Z,23.20
2023-02-08T20:44:20.578Z,21.83
2023-02-08T20:46:48.318Z,22.93
2023-02-08T20:49:21.894Z,21.83
2023-02-08T20:51:52.223Z,21.83
2023-02-08T20:54:20.214Z,21.23
2023-02-08T20:56:47.853Z,23.43
2023-02-08T20:59:16.317Z,22.43
2023-02-08T21:01:46.378Z,24.03
2023-02-08T21:04:14.486Z,22.27
2023-02-08T21:06:44.569Z,22.43
2023-02-08T21:09:14.775Z,22.33
2023-02-08T21:11:42.967Z,22.60
2023-02-08T21:14:15.321Z,23.20
2023-02-08T21:16:43.110Z,22.43
2023-02-08T21:19:12.974Z,24.07
2023-02-08T21:21:40.696Z,22.53
2023-02-08T21:24:09.344Z,23.67
2023-02-08T21:26:37.011Z,22.13
2023-02-08T21:29:06.420Z,23.50
2023-02-08T21:31:36.361Z,23.00
2023-02-08T21:34:04.817Z,23.27
2023-02-08T21:36:34.275Z,23.43
2023-02-08T21:39:02.026Z,24.23
2023-02-08T21:41:32.165Z,23.83
2023-02-08T21:44:02.244Z,23.27
2023-02-08T21:46:30.203Z,23.63
2023-02-08T21:49:16.532Z,22.80
2023-02-08T21:52:03.888Z,22.77
2023-02-08T21:54:43.985Z,23.57
2023-02-08T21:57:14.589Z,26.00
2023-02-08T21:59:42.926Z,22.00
2023-02-08T22:02:14.437Z,26.00
2023-02-08T22:04:46.970Z,25.73
2023-02-08T22:07:16.348Z,25.20
2023-02-08T22:09:44.378Z,25.13
2023-02-08T22:12:16.397Z,25.47
2023-02-08T22:14:44.319Z,24.57
2023-02-08T22:17:12.037Z,25.63
2023-02-08T22:19:40.404Z,24.47
2023-02-08T22:22:08.731Z,24.77
2023-02-08T22:24:37.999Z,25.10
2023-02-08T22:27:05.799Z,25.83
2023-02-08T22:29:33.966Z,26.17
2023-02-08T22:32:02.049Z,26.00
2023-02-08T22:34:29.939Z,25.83
2023-02-08T22:36:58.120Z,24.90
2023-02-08T22:39:25.833Z,25.53
2023-02-08T22:41:55.251Z,26.43
2023-02-08T22:44:22.906Z,26.57
2023-02-08T22:46:50.644Z,26.00
2023-02-08T22:49:19.322Z,27.70
2023-02-08T22:51:47.379Z,27.47
2023-02-08T22:54:15.101Z,27.77
2023-02-08T22:56:43.047Z,28.00
2023-02-08T22:59:12.142Z,26.97
2023-02-08T23:01:39.974Z,28.33
2023-02-08T23:04:07.659Z,28.13
2023-02-08T23:06:35.787Z,29.27
2023-02-08T23:09:04.874Z,28.20
2023-02-08T23:11:32.951Z,29.53
2023-02-08T23:14:00.722Z,28.30
2023-02-08T23:16:29.889Z,28.17
2023-02-08T23:18:58.222Z,30.10
2023-02-08T23:21:25.979Z,29.70
2023-02-08T23:23:53.742Z,27.87
2023-02-08T23:26:22.313Z,30.17
2023-02-08T23:28:51.112Z,30.23
2023-02-08T23:31:19.227Z,28.17
2023-02-08T23:33:48.588Z,29.23
2023-02-08T23:36:19.192Z,29.53
2023-02-08T23:38:47.299Z,29.77
2023-02-08T23:41:17.070Z,30.27
2023-02-08T23:43:45.041Z,29.60
2023-02-08T23:46:15.919Z,30.83
2023-02-08T23:48:44.108Z,30.00
2023-02-08T23:51:13.152Z,30.50
2023-02-08T23:53:41.310Z,30.07
2023-02-08T23:56:14.618Z,30.30
2023-02-08T23:58:42.641Z,31.63
